Pagrindinis puslapis
METAR-TAF:

METAR-TAF

Oro uostai :

Izmiras, Turkija

platuma: 38-16N, ilguma: 027-09E, Aukštis: 125 m

Dabartinis oras

Ataskaita buvo paskelbta 43 minutes, ne 06:20 UTC
Vėjas 8 kt iš Pietų/Pietvakarių
Temperatūra 19°C
Drėgmė 73%
Slėgis 1013 hPa
Matomumas 10 km arba daugiau
Mažai debesys ne aukštis 3000 ft

METAR: LTBJ 140620Z 20008KT 9999 FEW030 19/14 Q1013 NOSIG RMK RWY16 20010KT

Laikas: 10:03 (07:03 UTC)

Prognozė

Ataskaita buvo paskelbta 2 valandos ir 23 minutes, ne 04:40 UTC
Prognozė galioja nuo 14 metu 06 UTC su 15 metu 06 UTC
Vėjas 2 kt nuo kintamojo kryptimis
Matomumas 10 km arba daugiau
nėra debesų žemiau 1500 m ir nėra kamuolinių lietaus debesų
Tapsmas
nuo 14 metu 06 UTC su 14 metu 09 UTC
Vėjas 12 kt iš Pietų/Pietvakarių
Tapsmas
nuo 14 metu 16 UTC su 14 metu 18 UTC
Vėjas 2 kt nuo kintamojo kryptimis

TAF: LTBJ 140440Z 1406/1506 VRB02KT CAVOK BECMG 1406/1409 20012KT BECMG 1416/1418 VRB02KT

Orai ataskaitas ir orų prognozės (METAR, TAF).

turimą stotys yra geltonos ir raudonos taškus žemėlapyje.

Perkelti pele per norėdami pamatyti stoties vardą.

Tada spustelėkite, norėdami matyti oro stebėjimo ir prognozės.

Norėdami pakeisti žemėlapį: spustelėkite ant žalios mygtukų su juodo kryžiaus žemyn,; žalią mygtuką su brūkšneliu, jei norite nutolinti; arba žalių rodyklių gretimoms žemėlapius.


METAR-TAF: